Time;durP1;ratioP1;P1;durP2;ratioP2;P2;SDS_P1;SDS_P2;PMS_P1;PMS_P2;Temp;Humidity;BMP_temperature;BMP_pressure;BME280_temperature;BME280_humidity;BME280_pressure;Samples;Min_cycle;Max_cycle;Signal;HPM_P1;HPM_P2
2022/03/05 00:00:45;;;;;;;9.67;5.40;;;3.10;99.90;;;;;;5018885;28;20192;-82
2022/03/05 00:03:11;;;;;;;7.90;6.00;;;3.00;99.90;;;;;;5005143;28;20292;-83
2022/03/05 00:05:37;;;;;;;7.60;5.43;;;2.90;99.90;;;;;;5027042;28;20180;-83
2022/03/05 00:08:03;;;;;;;8.47;5.70;;;3.00;99.90;;;;;;5023956;28;20237;-83
2022/03/05 00:10:29;;;;;;;7.27;5.60;;;3.00;99.90;;;;;;5010709;28;20211;-83
2022/03/05 00:12:54;;;;;;;7.73;5.43;;;3.00;99.90;;;;;;5011431;28;20230;-73
2022/03/05 00:15:20;;;;;;;10.03;5.50;;;3.00;99.90;;;;;;5000394;28;20223;-82
2022/03/05 00:17:49;;;;;;;8.60;5.57;;;2.90;99.90;;;;;;5013624;28;20211;-78
2022/03/05 00:20:16;;;;;;;8.63;6.00;;;2.80;99.90;;;;;;5008102;28;20207;-84
2022/03/05 00:22:42;;;;;;;8.17;4.93;;;2.70;99.90;;;;;;5014829;28;20230;-78
2022/03/05 00:25:08;;;;;;;9.23;5.00;;;2.50;99.90;;;;;;5009746;28;20797;-83
2022/03/05 00:27:34;;;;;;;6.63;4.70;;;2.30;99.90;;;;;;5015393;28;20191;-82
2022/03/05 00:29:59;;;;;;;10.73;5.60;;;2.30;99.90;;;;;;5018344;28;20617;-84
2022/03/05 00:32:25;;;;;;;6.63;4.70;;;2.00;99.90;;;;;;5007368;28;20768;-78
2022/03/05 00:34:50;;;;;;;8.47;5.50;;;2.00;99.90;;;;;;5014427;28;20872;-78
2022/03/05 00:37:16;;;;;;;6.57;5.00;;;1.90;99.90;;;;;;4998660;28;20234;-80
2022/03/05 00:39:42;;;;;;;5.27;4.77;;;1.90;99.90;;;;;;5014928;28;20298;-81
2022/03/05 00:42:07;;;;;;;10.93;5.83;;;2.00;99.90;;;;;;4991805;28;20616;-80
2022/03/05 00:44:33;;;;;;;7.33;5.87;;;2.10;99.90;;;;;;5013920;28;20652;-81
2022/03/05 00:46:59;;;;;;;13.67;6.83;;;2.00;99.90;;;;;;5006728;28;20192;-79
2022/03/05 00:49:25;;;;;;;16.77;7.07;;;2.00;99.90;;;;;;5002843;28;20298;-83
2022/03/05 00:51:52;;;;;;;13.40;7.67;;;1.80;99.90;;;;;;5017527;28;20326;-79
2022/03/05 00:54:18;;;;;;;20.90;9.20;;;1.70;99.90;;;;;;5004987;28;20286;-80
2022/03/05 00:56:44;;;;;;;13.23;9.20;;;1.70;99.90;;;;;;5011649;28;20211;-78
2022/03/05 00:59:09;;;;;;;15.10;9.93;;;1.70;99.90;;;;;;5013044;28;20203;-80
2022/03/05 01:01:36;;;;;;;16.90;10.07;;;1.60;99.90;;;;;;5012617;28;21131;-83
2022/03/05 01:04:01;;;;;;;13.30;9.97;;;1.60;99.90;;;;;;5013530;28;20713;-81
2022/03/05 01:06:27;;;;;;;16.83;10.87;;;1.60;99.90;;;;;;4990189;28;20212;-81
2022/03/05 01:08:53;;;;;;;14.87;10.33;;;1.70;99.90;;;;;;5004002;28;20224;-82
2022/03/05 01:11:19;;;;;;;17.30;10.07;;;1.80;99.90;;;;;;5013730;28;20302;-79
2022/03/05 01:13:45;;;;;;;15.37;8.67;;;2.00;99.90;;;;;;5009764;28;20547;-81
2022/03/05 01:16:11;;;;;;;11.73;8.50;;;2.10;99.90;;;;;;5010629;28;20189;-82
2022/03/05 01:18:37;;;;;;;14.10;7.63;;;2.10;99.90;;;;;;5010966;28;20618;-83
2022/03/05 01:21:02;;;;;;;11.03;7.90;;;2.00;99.90;;;;;;5004709;28;20199;-79
2022/03/05 01:23:28;;;;;;;10.73;7.73;;;2.00;99.90;;;;;;5006863;28;20192;-85
2022/03/05 01:25:53;;;;;;;8.47;6.80;;;2.00;99.90;;;;;;5014277;28;20238;-89
2022/03/05 01:28:19;;;;;;;13.50;7.70;;;1.80;99.90;;;;;;5005782;28;20402;-84
2022/03/05 01:30:44;;;;;;;8.83;6.67;;;1.70;99.90;;;;;;4983629;28;20207;-85
2022/03/05 01:33:15;;;;;;;8.20;6.07;;;1.70;99.90;;;;;;5014942;28;20286;-84
2022/03/05 01:35:43;;;;;;;10.33;6.03;;;1.70;99.90;;;;;;5014123;28;20194;-85
2022/03/05 01:38:09;;;;;;;8.93;6.50;;;1.60;99.90;;;;;;5005511;28;20393;-85
2022/03/05 01:40:35;;;;;;;15.17;6.97;;;1.60;99.90;;;;;;5015333;28;20179;-80
2022/03/05 01:43:01;;;;;;;10.00;5.77;;;1.60;99.90;;;;;;5014579;28;20195;-79
2022/03/05 01:45:27;;;;;;;8.50;6.40;;;1.70;99.90;;;;;;5015534;28;20193;-83
2022/03/05 01:47:52;;;;;;;10.20;5.53;;;1.80;99.90;;;;;;5008653;28;20294;-86
2022/03/05 01:50:18;;;;;;;11.20;6.37;;;1.80;99.90;;;;;;5007777;28;20243;-78
2022/03/05 01:52:43;;;;;;;11.73;5.53;;;1.80;99.90;;;;;;5004419;28;20198;-80
2022/03/05 01:55:12;;;;;;;12.50;6.07;;;1.70;99.90;;;;;;5015181;28;20196;-82
2022/03/05 01:57:37;;;;;;;12.47;6.83;;;1.60;99.90;;;;;;5008233;28;20219;-83
2022/03/05 02:00:08;;;;;;;8.70;6.83;;;1.60;99.90;;;;;;5008199;28;20188;-81
2022/03/05 02:02:33;;;;;;;9.63;5.77;;;1.70;99.90;;;;;;5010449;28;20218;-84
2022/03/05 02:04:59;;;;;;;11.87;6.30;;;1.60;99.90;;;;;;5011014;28;20191;-80
2022/03/05 02:07:24;;;;;;;10.53;6.40;;;1.50;99.90;;;;;;5003069;28;20192;-81
2022/03/05 02:09:51;;;;;;;11.33;6.80;;;1.30;99.90;;;;;;5019939;28;20278;-82
2022/03/05 02:12:16;;;;;;;15.67;6.23;;;1.20;99.90;;;;;;5013295;28;20221;-81
2022/03/05 02:14:42;;;;;;;6.77;5.43;;;1.20;99.90;;;;;;5012963;28;20249;-81
2022/03/05 02:17:08;;;;;;;9.07;4.47;;;1.20;99.90;;;;;;5009545;28;20195;-73
2022/03/05 02:19:33;;;;;;;9.43;5.23;;;1.40;99.90;;;;;;5015750;28;20663;-73
2022/03/05 02:21:59;;;;;;;6.93;4.77;;;1.40;99.90;;;;;;5006713;28;20214;-76
2022/03/05 02:24:34;;;;;;;10.67;5.20;;;1.40;99.90;;;;;;5008076;28;20366;-70
2022/03/05 02:27:04;;;;;;;10.13;6.20;;;1.40;99.90;;;;;;5003210;28;20573;-77
2022/03/05 02:29:34;;;;;;;10.97;5.67;;;1.30;99.90;;;;;;5014864;28;20188;-81
2022/03/05 02:32:01;;;;;;;6.20;5.23;;;1.10;99.90;;;;;;5014879;28;20702;-78
2022/03/05 02:34:27;;;;;;;8.03;5.67;;;1.10;99.90;;;;;;5018248;28;20195;-77
2022/03/05 02:36:53;;;;;;;8.57;5.03;;;1.00;99.90;;;;;;5002935;28;20283;-79
2022/03/05 02:39:18;;;;;;;7.97;5.27;;;1.00;99.90;;;;;;5021612;28;20300;-77
2022/03/05 02:41:44;;;;;;;10.93;5.77;;;1.00;99.90;;;;;;5006490;28;20219;-72
2022/03/05 02:44:10;;;;;;;9.73;6.00;;;1.10;99.90;;;;;;5009642;28;20180;-72
2022/03/05 02:46:35;;;;;;;8.50;5.50;;;1.10;99.90;;;;;;5009040;28;20207;-76
2022/03/05 02:49:03;;;;;;;6.00;5.40;;;1.10;99.90;;;;;;5016566;28;20196;-76
2022/03/05 02:51:29;;;;;;;9.87;6.40;;;1.00;99.90;;;;;;5008140;28;20208;-76
2022/03/05 02:53:54;;;;;;;11.97;5.60;;;1.00;99.90;;;;;;5023872;28;20187;-74
2022/03/05 02:56:20;;;;;;;7.60;5.47;;;0.90;99.90;;;;;;5006186;28;20616;-74
2022/03/05 02:58:45;;;;;;;10.23;5.73;;;0.90;99.90;;;;;;5020348;28;20247;-82
2022/03/05 03:01:11;;;;;;;9.60;5.67;;;0.80;99.90;;;;;;5024319;28;20204;-77
2022/03/05 03:03:36;;;;;;;10.77;6.10;;;0.80;99.90;;;;;;5015242;28;20614;-76
2022/03/05 03:06:02;;;;;;;6.80;5.57;;;0.90;99.90;;;;;;5009285;28;20206;-69
2022/03/05 03:08:27;;;;;;;12.37;5.50;;;0.90;99.90;;;;;;5019300;28;20602;-69
2022/03/05 03:10:53;;;;;;;8.97;5.40;;;0.90;99.90;;;;;;5007834;28;20656;-70
2022/03/05 03:13:18;;;;;;;11.17;5.83;;;0.90;99.90;;;;;;5014354;28;20206;-69
2022/03/05 03:15:44;;;;;;;6.63;5.27;;;0.90;99.90;;;;;;5008425;28;20187;-72
2022/03/05 03:18:09;;;;;;;9.77;5.40;;;0.90;99.90;;;;;;5010027;28;20200;-77
2022/03/05 03:20:35;;;;;;;15.00;6.03;;;0.90;99.90;;;;;;5009718;28;20669;-77
2022/03/05 03:23:01;;;;;;;7.17;4.73;;;0.70;99.90;;;;;;5010731;28;20211;-80
2022/03/05 03:25:26;;;;;;;10.07;6.13;;;0.60;99.90;;;;;;5007139;28;20258;-74
2022/03/05 03:27:52;;;;;;;10.50;6.47;;;0.40;99.90;;;;;;5018576;28;20213;-73
2022/03/05 03:30:19;;;;;;;9.87;5.60;;;0.50;99.90;;;;;;5024153;28;20203;-73
2022/03/05 03:32:45;;;;;;;7.33;5.53;;;0.50;99.90;;;;;;5015188;28;20301;-74
2022/03/05 03:35:13;;;;;;;7.73;5.73;;;0.50;99.90;;;;;;5021723;28;20204;-73
2022/03/05 03:37:39;;;;;;;8.67;5.93;;;0.50;99.90;;;;;;5016496;28;20226;-73
2022/03/05 03:40:07;;;;;;;8.30;5.73;;;0.50;99.90;;;;;;5023650;28;20260;-70
2022/03/05 03:42:34;;;;;;;10.37;5.90;;;0.60;99.90;;;;;;5014958;28;20199;-71
2022/03/05 03:45:00;;;;;;;9.57;5.67;;;0.60;99.90;;;;;;5007791;28;20200;-71
2022/03/05 03:47:25;;;;;;;10.93;5.63;;;0.60;99.90;;;;;;4979065;28;20669;-70
2022/03/05 03:49:51;;;;;;;8.90;6.27;;;0.60;99.90;;;;;;5007607;28;20281;-70
2022/03/05 03:52:17;;;;;;;10.17;6.33;;;0.50;99.90;;;;;;5005297;28;20207;-71
2022/03/05 03:54:44;;;;;;;12.23;6.37;;;0.20;99.90;;;;;;5004448;28;20199;-71
2022/03/05 03:57:10;;;;;;;11.70;7.17;;;0.20;99.90;;;;;;5014538;28;20217;-71
2022/03/05 03:59:36;;;;;;;10.07;6.73;;;0.30;99.90;;;;;;5008779;28;20192;-70
2022/03/05 04:02:02;;;;;;;8.20;6.40;;;0.20;99.90;;;;;;5005988;28;20206;-71
2022/03/05 04:04:28;;;;;;;9.30;6.73;;;0.20;99.90;;;;;;5015500;28;20179;-70
2022/03/05 04:09:38;;;;;;;10.17;6.67;;;0.20;99.90;;;;;;5007996;28;20187;-72
2022/03/05 04:12:04;;;;;;;9.23;6.13;;;0.30;99.90;;;;;;5004797;28;20306;-73
2022/03/05 04:14:29;;;;;;;9.13;6.33;;;0.20;99.90;;;;;;5018783;28;20219;-72
2022/03/05 04:16:55;;;;;;;9.53;5.97;;;0.30;99.90;;;;;;4987312;28;20265;-72
2022/03/05 04:19:20;;;;;;;8.60;5.70;;;0.20;99.90;;;;;;5017973;28;20656;-72
2022/03/05 04:21:46;;;;;;;8.90;6.93;;;0.30;99.90;;;;;;5024483;28;20340;-72
2022/03/05 04:24:12;;;;;;;8.27;5.50;;;0.30;99.90;;;;;;5010947;28;20229;-73
2022/03/05 04:26:38;;;;;;;10.10;6.33;;;0.30;99.90;;;;;;5014801;28;20618;-72
2022/03/05 04:29:04;;;;;;;8.27;5.97;;;0.20;99.90;;;;;;5013928;28;20264;-71
2022/03/05 04:31:29;;;;;;;10.43;6.60;;;0.10;99.90;;;;;;5016153;28;20256;-72
2022/03/05 04:33:55;;;;;;;12.43;6.20;;;0.10;99.90;;;;;;5017566;28;20185;-71
2022/03/05 04:36:21;;;;;;;11.77;6.40;;;0.20;99.90;;;;;;5004110;28;20186;-71
2022/03/05 04:38:46;;;;;;;13.10;6.20;;;0.20;99.90;;;;;;5018415;28;20236;-71
2022/03/05 04:41:11;;;;;;;9.43;6.33;;;0.20;99.90;;;;;;5006210;28;20204;-71
2022/03/05 04:43:37;;;;;;;10.80;6.20;;;0.10;99.90;;;;;;5007753;28;20237;-71
2022/03/05 04:46:02;;;;;;;9.37;5.93;;;0.10;99.90;;;;;;5007246;28;20601;-73
2022/03/05 04:48:28;;;;;;;8.90;5.27;;;0.10;99.90;;;;;;5013512;28;20200;-74
2022/03/05 04:50:54;;;;;;;9.70;5.37;;;0.00;99.90;;;;;;5006174;28;20214;-74
2022/03/05 04:53:21;;;;;;;7.97;6.30;;;-0.10;99.90;;;;;;5020731;28;20202;-74
2022/03/05 04:55:49;;;;;;;11.33;6.40;;;0.00;99.90;;;;;;4996874;28;20188;-73
2022/03/05 04:58:16;;;;;;;11.67;7.23;;;0.10;99.90;;;;;;5020207;28;20198;-74
2022/03/05 05:00:41;;;;;;;16.87;6.47;;;0.00;99.90;;;;;;5006622;28;20920;-74
2022/03/05 05:03:07;;;;;;;10.40;6.07;;;0.10;99.90;;;;;;5010206;28;20205;-74
2022/03/05 05:05:32;;;;;;;9.70;5.77;;;0.10;99.90;;;;;;5016033;28;20204;-74
2022/03/05 05:07:58;;;;;;;16.70;7.63;;;0.10;99.90;;;;;;5018293;28;20199;-74
2022/03/05 05:10:23;;;;;;;10.40;6.27;;;-0.10;99.90;;;;;;5018601;28;20592;-74
2022/03/05 05:12:49;;;;;;;11.67;7.10;;;0.00;99.90;;;;;;5015478;28;20304;-74
2022/03/05 05:15:14;;;;;;;14.23;7.30;;;-0.10;99.90;;;;;;5006010;28;20196;-76
2022/03/05 05:17:40;;;;;;;7.37;5.67;;;0.00;99.90;;;;;;5011879;28;20922;-75
2022/03/05 05:20:07;;;;;;;18.47;7.67;;;0.10;99.90;;;;;;5005703;28;20183;-76
2022/03/05 05:22:33;;;;;;;10.97;7.30;;;0.10;99.90;;;;;;5008355;28;20293;-75
2022/03/05 05:24:59;;;;;;;9.03;6.57;;;0.10;99.90;;;;;;5008902;28;20331;-75
2022/03/05 05:27:25;;;;;;;7.73;5.53;;;0.10;99.90;;;;;;5013226;28;20747;-76
2022/03/05 05:29:50;;;;;;;12.87;6.97;;;0.00;99.90;;;;;;5006754;28;20269;-77
2022/03/05 05:32:17;;;;;;;11.27;7.27;;;0.00;99.90;;;;;;5011431;28;20309;-75
2022/03/05 05:34:42;;;;;;;17.67;10.33;;;0.00;99.90;;;;;;5006048;28;20204;-76
2022/03/05 05:37:08;;;;;;;13.60;8.77;;;0.00;99.90;;;;;;5003994;28;20284;-76
2022/03/05 05:39:33;;;;;;;14.57;7.53;;;0.00;99.90;;;;;;5017717;28;20276;-75
2022/03/05 05:41:59;;;;;;;15.53;7.30;;;0.00;99.90;;;;;;5004558;28;20214;-70
2022/03/05 05:44:24;;;;;;;12.90;7.67;;;0.00;99.90;;;;;;5013079;28;20193;-69
2022/03/05 05:46:50;;;;;;;18.03;8.90;;;0.00;99.90;;;;;;5015979;28;20221;-72
2022/03/05 05:49:16;;;;;;;17.80;9.23;;;0.00;99.90;;;;;;5010381;28;20193;-73
2022/03/05 05:51:41;;;;;;;13.80;7.93;;;0.00;99.90;;;;;;5006498;28;20620;-72
2022/03/05 05:54:08;;;;;;;15.43;8.47;;;0.00;99.90;;;;;;5017301;28;20174;-72
2022/03/05 05:56:33;;;;;;;14.03;8.53;;;0.00;99.90;;;;;;5009493;28;20562;-71
2022/03/05 05:58:59;;;;;;;16.27;8.20;;;0.00;99.90;;;;;;5016780;28;20195;-71
2022/03/05 06:01:25;;;;;;;13.53;8.33;;;-0.30;99.90;;;;;;5012325;28;20202;-71
2022/03/05 06:03:52;;;;;;;15.17;9.07;;;-0.30;99.90;;;;;;5013732;28;20198;-73
2022/03/05 06:06:18;;;;;;;17.97;9.30;;;-0.30;99.90;;;;;;5013638;28;20566;-73
2022/03/05 06:08:43;;;;;;;16.77;9.80;;;-0.20;99.90;;;;;;5009219;28;20756;-73
2022/03/05 06:11:09;;;;;;;12.77;9.73;;;-0.20;99.90;;;;;;5015623;28;20216;-72
2022/03/05 06:13:35;;;;;;;15.57;8.73;;;-0.10;99.90;;;;;;5012308;28;20226;-73
2022/03/05 06:16:00;;;;;;;17.60;9.50;;;-0.10;99.90;;;;;;4987488;28;20233;-72
2022/03/05 06:18:26;;;;;;;14.50;7.53;;;-0.10;99.90;;;;;;5013155;28;20259;-72
2022/03/05 06:20:51;;;;;;;13.10;8.37;;;-0.10;99.90;;;;;;5013785;28;20645;-72
2022/03/05 06:23:18;;;;;;;14.30;9.20;;;-0.10;99.90;;;;;;5014144;28;20259;-72
2022/03/05 06:25:44;;;;;;;9.53;8.10;;;-0.10;99.90;;;;;;5024909;28;20348;-71
2022/03/05 06:28:09;;;;;;;17.03;8.90;;;0.00;99.90;;;;;;5016220;28;20210;-71
2022/03/05 06:30:35;;;;;;;14.90;8.27;;;0.00;99.90;;;;;;5011151;28;20221;-71
2022/03/05 06:33:00;;;;;;;12.23;8.53;;;0.00;99.90;;;;;;5021819;28;20674;-71
2022/03/05 06:35:26;;;;;;;9.80;8.33;;;0.00;99.90;;;;;;5022808;28;20198;-71
2022/03/05 06:37:52;;;;;;;12.03;8.33;;;0.10;99.90;;;;;;5011915;28;20210;-71
2022/03/05 06:40:17;;;;;;;12.53;8.77;;;0.10;99.90;;;;;;5013300;28;20214;-72
2022/03/05 06:42:45;;;;;;;14.80;9.20;;;0.10;99.90;;;;;;5016275;28;20266;-72
2022/03/05 06:45:11;;;;;;;13.40;8.37;;;0.10;99.90;;;;;;5008710;28;20191;-72
2022/03/05 06:47:37;;;;;;;15.57;9.20;;;0.10;99.90;;;;;;5014961;28;20211;-71
2022/03/05 06:50:04;;;;;;;12.27;9.87;;;0.20;99.90;;;;;;5008820;28;20194;-72
2022/03/05 06:52:29;;;;;;;16.20;9.10;;;0.20;99.90;;;;;;5008868;28;20210;-72
2022/03/05 06:54:55;;;;;;;14.67;8.67;;;0.20;99.90;;;;;;5022959;28;20186;-72
2022/03/05 06:57:21;;;;;;;20.63;11.07;;;0.30;99.90;;;;;;5006968;28;20195;-72
2022/03/05 06:59:46;;;;;;;16.17;10.13;;;0.30;99.90;;;;;;5012427;28;20238;-72
2022/03/05 07:02:12;;;;;;;15.83;10.20;;;0.30;99.90;;;;;;5022280;28;20213;-72
2022/03/05 07:04:37;;;;;;;15.87;9.73;;;0.30;99.90;;;;;;5016096;28;20238;-72
2022/03/05 07:07:03;;;;;;;14.80;10.30;;;0.40;99.90;;;;;;5013154;28;20198;-71
2022/03/05 07:09:29;;;;;;;16.90;10.47;;;0.40;99.90;;;;;;5019802;28;20189;-71
2022/03/05 07:11:54;;;;;;;14.20;9.17;;;0.50;99.90;;;;;;5015582;28;20210;-71
2022/03/05 07:14:20;;;;;;;15.27;10.03;;;0.50;99.90;;;;;;5018969;28;20191;-71
2022/03/05 07:16:45;;;;;;;18.20;10.10;;;0.60;99.90;;;;;;5006142;28;20209;-70
2022/03/05 07:19:11;;;;;;;13.57;9.33;;;0.70;99.90;;;;;;5020540;28;20191;-70
2022/03/05 07:21:36;;;;;;;19.10;10.23;;;0.80;99.90;;;;;;5017527;28;20281;-70
2022/03/05 07:24:04;;;;;;;14.73;9.63;;;0.90;99.90;;;;;;5014336;28;20194;-71
2022/03/05 07:26:29;;;;;;;18.13;10.13;;;1.00;99.90;;;;;;5009889;28;20233;-70
2022/03/05 07:28:54;;;;;;;16.40;9.00;;;1.00;99.90;;;;;;5019054;28;20575;-70
2022/03/05 07:31:20;;;;;;;11.23;7.90;;;1.10;99.90;;;;;;5005769;28;20212;-70
2022/03/05 07:33:45;;;;;;;12.77;8.53;;;1.10;99.90;;;;;;5027884;28;20261;-70
2022/03/05 07:36:11;;;;;;;14.43;8.27;;;1.20;99.90;;;;;;5023094;28;20528;-70
2022/03/05 07:38:40;;;;;;;14.07;9.00;;;1.30;99.90;;;;;;5014705;28;20250;-72
2022/03/05 07:41:06;;;;;;;12.77;8.80;;;1.40;99.90;;;;;;5009352;28;20565;-70
2022/03/05 07:43:31;;;;;;;12.80;9.00;;;1.40;99.90;;;;;;5018738;28;20222;-73
2022/03/05 07:45:57;;;;;;;12.20;8.40;;;1.50;99.90;;;;;;5008051;28;20246;-72
2022/03/05 07:48:22;;;;;;;16.23;8.93;;;1.50;99.90;;;;;;5023568;28;20221;-71
2022/03/05 07:50:49;;;;;;;14.67;9.43;;;1.60;99.90;;;;;;5019706;28;20690;-72
2022/03/05 07:53:15;;;;;;;12.77;8.90;;;1.60;99.90;;;;;;5014625;28;20201;-72
2022/03/05 07:55:40;;;;;;;14.67;9.83;;;1.60;99.90;;;;;;5007388;28;20195;-71
2022/03/05 07:58:06;;;;;;;23.00;13.30;;;1.70;99.90;;;;;;5017911;28;20205;-71
2022/03/05 08:00:32;;;;;;;10.63;7.80;;;1.80;99.90;;;;;;5007188;28;20199;-72
2022/03/05 08:02:57;;;;;;;13.23;9.47;;;1.80;99.90;;;;;;5018120;28;20207;-72
2022/03/05 08:05:23;;;;;;;11.93;9.00;;;1.80;99.90;;;;;;5007205;28;20201;-71
2022/03/05 08:07:48;;;;;;;11.47;8.63;;;1.90;99.90;;;;;;5013626;28;20199;-71
2022/03/05 08:10:15;;;;;;;12.57;8.60;;;2.00;99.90;;;;;;5006982;28;20681;-72
2022/03/05 08:12:41;;;;;;;13.73;8.73;;;2.00;99.90;;;;;;5016273;28;20215;-72
2022/03/05 08:15:07;;;;;;;15.57;8.97;;;2.10;99.90;;;;;;5021516;28;20196;-71
2022/03/05 08:17:32;;;;;;;10.87;9.23;;;2.10;99.90;;;;;;5014980;28;20203;-71
2022/03/05 08:19:58;;;;;;;12.00;7.90;;;2.20;99.90;;;;;;5022328;28;20197;-72
2022/03/05 08:22:24;;;;;;;10.47;8.63;;;2.20;99.90;;;;;;5021668;28;20677;-73
2022/03/05 08:24:49;;;;;;;17.37;9.63;;;2.30;99.90;;;;;;5006575;28;20223;-72
2022/03/05 08:27:15;;;;;;;13.30;9.30;;;2.40;99.90;;;;;;5005746;28;20188;-71
2022/03/05 08:29:41;;;;;;;14.57;9.27;;;2.40;99.90;;;;;;5013445;28;20566;-69
2022/03/05 08:32:07;;;;;;;11.07;8.00;;;2.50;99.90;;;;;;5014930;28;20586;-70
2022/03/05 08:34:32;;;;;;;12.07;7.73;;;2.50;99.90;;;;;;5020875;28;20184;-70
2022/03/05 08:36:58;;;;;;;11.67;8.43;;;2.60;99.90;;;;;;5022053;28;20215;-69
2022/03/05 08:39:23;;;;;;;15.57;8.73;;;2.60;99.90;;;;;;5010777;28;20184;-69
2022/03/05 08:41:49;;;;;;;12.87;9.93;;;2.60;99.90;;;;;;5009203;28;20195;-70
2022/03/05 08:44:15;;;;;;;13.53;9.40;;;2.70;99.90;;;;;;5019657;28;20681;-71
2022/03/05 08:46:41;;;;;;;15.37;8.67;;;2.70;99.90;;;;;;5004182;28;20229;-70
2022/03/05 08:49:06;;;;;;;13.40;9.20;;;2.80;99.90;;;;;;5013358;28;20274;-70
2022/03/05 08:51:32;;;;;;;10.97;8.17;;;2.80;99.90;;;;;;5021225;28;20590;-70
2022/03/05 08:53:57;;;;;;;13.77;9.47;;;2.80;99.90;;;;;;5019855;28;20215;-73
2022/03/05 08:56:23;;;;;;;12.67;9.40;;;2.70;99.90;;;;;;5015138;28;20194;-71
2022/03/05 08:58:49;;;;;;;13.60;8.77;;;2.80;99.90;;;;;;5014220;28;20191;-69
2022/03/05 09:01:15;;;;;;;16.40;9.83;;;3.00;99.90;;;;;;5006292;28;20627;-70
2022/03/05 09:03:41;;;;;;;13.07;10.87;;;3.10;99.90;;;;;;5012082;28;20785;-69
2022/03/05 09:06:07;;;;;;;11.57;9.17;;;3.20;99.90;;;;;;5015105;28;20504;-69
2022/03/05 09:08:33;;;;;;;15.67;9.83;;;3.30;99.90;;;;;;5016643;28;20581;-70
2022/03/05 09:10:59;;;;;;;15.10;8.97;;;3.30;99.90;;;;;;5013636;28;20212;-69
2022/03/05 09:13:24;;;;;;;15.87;9.53;;;3.30;99.90;;;;;;5007278;28;20195;-69
2022/03/05 09:15:50;;;;;;;13.40;9.23;;;3.40;99.90;;;;;;5021465;28;20195;-70
2022/03/05 09:18:15;;;;;;;14.10;9.17;;;3.40;99.90;;;;;;5014869;28;20242;-73
2022/03/05 09:20:46;;;;;;;14.67;9.33;;;3.50;99.90;;;;;;5005707;28;20223;-77
2022/03/05 09:23:12;;;;;;;13.43;9.23;;;3.60;99.90;;;;;;5003850;28;20215;-69
2022/03/05 09:25:37;;;;;;;12.77;10.27;;;3.60;99.90;;;;;;5007631;28;20357;-75
2022/03/05 09:28:03;;;;;;;14.13;10.10;;;3.60;99.90;;;;;;5004675;28;20652;-74
2022/03/05 09:30:28;;;;;;;14.13;10.27;;;3.50;99.90;;;;;;4998762;28;20765;-74
2022/03/05 09:32:54;;;;;;;15.90;10.43;;;3.60;99.90;;;;;;5012411;28;20207;-75
2022/03/05 09:35:19;;;;;;;12.57;9.80;;;3.70;99.90;;;;;;5013716;28;20183;-75
2022/03/05 09:37:45;;;;;;;14.67;10.10;;;3.80;99.90;;;;;;5008580;28;20692;-74
2022/03/05 09:40:11;;;;;;;12.47;9.00;;;3.80;99.90;;;;;;5019018;28;20172;-75
2022/03/05 09:42:40;;;;;;;13.80;10.73;;;3.90;99.90;;;;;;5003503;28;20567;-68
2022/03/05 09:45:06;;;;;;;17.77;10.57;;;3.70;99.90;;;;;;5020646;28;20322;-75
2022/03/05 09:47:36;;;;;;;13.90;9.80;;;3.60;99.90;;;;;;5018779;28;20192;-74
2022/03/05 09:50:05;;;;;;;16.17;9.30;;;3.60;99.90;;;;;;5015738;28;20190;-76
2022/03/05 09:52:31;;;;;;;12.63;8.77;;;3.70;99.90;;;;;;5017242;28;20219;-78
2022/03/05 09:54:56;;;;;;;12.47;8.73;;;3.70;99.90;;;;;;5012528;28;20191;-78
2022/03/05 09:57:22;;;;;;;15.00;8.60;;;3.80;99.90;;;;;;5005619;28;20327;-81
2022/03/05 09:59:47;;;;;;;12.60;8.53;;;4.00;99.90;;;;;;5014226;28;20176;-75
2022/03/05 10:02:13;;;;;;;14.53;11.17;;;4.20;99.90;;;;;;5004243;28;20184;-84
2022/03/05 10:04:39;;;;;;;12.17;9.03;;;4.40;99.90;;;;;;5020557;28;20184;-84
2022/03/05 10:07:20;;;;;;;13.83;9.17;;;4.50;99.90;;;;;;5009009;28;20188;-84
2022/03/05 10:09:47;;;;;;;14.10;8.70;;;4.50;99.90;;;;;;5002559;28;20325;-83
2022/03/05 10:12:33;;;;;;;12.60;8.67;;;4.60;99.90;;;;;;5014591;28;20832;-84
2022/03/05 10:15:18;;;;;;;14.17;10.07;;;4.40;99.90;;;;;;5013424;28;20184;-84
2022/03/05 10:18:00;;;;;;;14.70;9.73;;;4.40;99.90;;;;;;4995285;28;20195;-82
2022/03/05 10:20:29;;;;;;;15.27;9.07;;;4.70;99.90;;;;;;5012141;28;20282;-76
2022/03/05 10:22:55;;;;;;;14.87;8.93;;;4.60;99.90;;;;;;5003535;28;20546;-72
2022/03/05 10:25:35;;;;;;;10.10;8.40;;;4.80;99.90;;;;;;4997727;28;20274;-75
2022/03/05 10:28:28;;;;;;;16.27;10.23;;;4.90;99.90;;;;;;4978857;28;20339;-78
2022/03/05 10:31:07;;;;;;;13.70;8.80;;;5.00;99.90;;;;;;4996958;28;20212;-77
2022/03/05 10:33:35;;;;;;;11.87;8.60;;;5.20;99.90;;;;;;4987077;28;20219;-69
2022/03/05 10:36:21;;;;;;;12.20;9.67;;;5.40;99.90;;;;;;4994526;28;20193;-68
2022/03/05 10:38:58;;;;;;;15.17;8.43;;;5.50;99.90;;;;;;4991195;28;20200;-70
2022/03/05 10:41:38;;;;;;;10.23;7.73;;;5.40;99.90;;;;;;4991343;28;20281;-71
2022/03/05 10:44:15;;;;;;;14.50;9.23;;;5.40;99.90;;;;;;4987268;28;20618;-77
2022/03/05 10:46:47;;;;;;;12.23;8.70;;;5.30;99.90;;;;;;4997163;28;20231;-77
2022/03/05 10:49:24;;;;;;;11.70;9.50;;;5.50;99.90;;;;;;4988266;28;20223;-75
2022/03/05 10:52:00;;;;;;;14.77;9.17;;;5.90;99.90;;;;;;4990528;28;20287;-78
2022/03/05 10:54:27;;;;;;;11.50;7.43;;;5.70;99.90;;;;;;4995594;28;20206;-83
2022/03/05 10:57:05;;;;;;;7.90;6.23;;;5.60;99.70;;;;;;5010302;28;20329;-83
2022/03/05 10:59:34;;;;;;;10.03;7.23;;;5.70;99.90;;;;;;5005571;28;20740;-84
2022/03/05 11:02:01;;;;;;;9.53;7.80;;;6.20;99.90;;;;;;4988667;28;20212;-82
2022/03/05 11:04:27;;;;;;;12.67;8.00;;;6.00;99.30;;;;;;4998799;28;20221;-84
2022/03/05 11:06:53;;;;;;;7.33;6.60;;;6.20;99.40;;;;;;4991777;28;20317;-85
2022/03/05 11:09:23;;;;;;;8.70;6.70;;;6.80;98.30;;;;;;4994018;28;20254;-84
2022/03/05 11:11:49;;;;;;;8.77;7.87;;;7.10;97.40;;;;;;5008128;28;20662;-84
2022/03/05 11:14:15;;;;;;;11.27;7.47;;;7.30;97.50;;;;;;4996074;28;20314;-77
2022/03/05 11:16:42;;;;;;;9.03;6.97;;;7.50;97.10;;;;;;5000332;28;20271;-75
2022/03/05 11:19:08;;;;;;;9.53;7.23;;;7.80;97.10;;;;;;4974347;28;20655;-74
2022/03/05 11:21:34;;;;;;;9.67;6.77;;;8.00;96.10;;;;;;5007027;28;20188;-73
2022/03/05 11:24:01;;;;;;;6.30;5.70;;;8.10;95.60;;;;;;4988996;28;20578;-68
2022/03/05 11:26:29;;;;;;;8.60;6.30;;;7.90;94.30;;;;;;4990787;28;20229;-67
2022/03/05 11:28:55;;;;;;;8.87;6.10;;;8.00;94.00;;;;;;5001111;28;20297;-75
2022/03/05 11:31:23;;;;;;;9.13;5.93;;;7.90;94.20;;;;;;4997071;28;20247;-76
2022/03/05 11:33:49;;;;;;;8.50;6.40;;;7.90;94.50;;;;;;5000624;28;20196;-75
2022/03/05 11:36:35;;;;;;;9.67;6.57;;;7.80;94.90;;;;;;4992429;28;20556;-74
2022/03/05 11:39:27;;;;;;;7.57;6.20;;;7.20;95.40;;;;;;4997178;28;20207;-70
2022/03/05 11:41:57;;;;;;;8.50;6.47;;;6.90;95.60;;;;;;4985938;28;20192;-74
2022/03/05 11:44:25;;;;;;;11.40;6.57;;;6.70;96.00;;;;;;5001772;28;20250;-74
2022/03/05 11:47:31;;;;;;;7.67;5.93;;;6.40;96.40;;;;;;5000431;28;20283;-75
2022/03/05 11:49:58;;;;;;;9.07;5.87;;;6.10;96.90;;;;;;4996898;28;20199;-75
2022/03/05 11:52:43;;;;;;;6.33;5.53;;;6.10;96.70;;;;;;5004707;28;20262;-75
2022/03/05 11:55:15;;;;;;;9.97;6.10;;;6.00;96.90;;;;;;5000297;28;20675;-75
2022/03/05 11:58:07;;;;;;;8.50;6.30;;;5.90;96.90;;;;;;4982194;28;20713;-74
2022/03/05 12:00:34;;;;;;;6.23;5.60;;;5.90;96.60;;;;;;4987874;28;20693;-74
2022/03/05 12:03:01;;;;;;;7.70;5.73;;;6.10;96.30;;;;;;5005636;28;20239;-74
2022/03/05 12:05:37;;;;;;;6.03;5.23;;;6.30;95.60;;;;;;5005471;28;20211;-75
2022/03/05 12:08:06;;;;;;;7.00;5.50;;;7.00;95.40;;;;;;5007012;28;20294;-75
2022/03/05 12:10:34;;;;;;;5.77;5.17;;;8.00;94.10;;;;;;4979767;28;20413;-76
2022/03/05 12:13:04;;;;;;;4.83;4.33;;;8.90;93.10;;;;;;4997274;28;20196;-74
2022/03/05 12:15:43;;;;;;;8.40;6.30;;;9.70;91.30;;;;;;4983330;28;20267;-74
2022/03/05 12:18:17;;;;;;;6.93;5.57;;;9.70;88.30;;;;;;5004690;28;20231;-73
2022/03/05 12:20:46;;;;;;;7.07;5.03;;;10.00;88.40;;;;;;5006982;28;20280;-74
2022/03/05 12:23:17;;;;;;;6.97;4.63;;;10.60;86.80;;;;;;4992917;28;20848;-73
2022/03/05 12:25:46;;;;;;;5.77;5.13;;;10.70;83.90;;;;;;4997891;28;20247;-73
2022/03/05 12:28:24;;;;;;;6.30;5.10;;;10.70;83.10;;;;;;4988489;28;20257;-73
2022/03/05 12:30:53;;;;;;;8.03;4.70;;;10.60;81.50;;;;;;4993058;28;20212;-73
2022/03/05 12:33:19;;;;;;;5.07;4.60;;;9.80;81.40;;;;;;4999644;28;20707;-73
2022/03/05 12:35:46;;;;;;;5.53;4.97;;;9.00;83.40;;;;;;4989589;28;20307;-74
2022/03/05 12:38:21;;;;;;;5.17;4.67;;;8.40;86.10;;;;;;4986356;28;20287;-73
2022/03/05 12:40:46;;;;;;;9.47;5.37;;;8.10;87.00;;;;;;4987512;28;20195;-76
2022/03/05 12:43:12;;;;;;;5.57;4.90;;;7.70;87.90;;;;;;4988156;28;20216;-81
2022/03/05 12:45:40;;;;;;;6.40;5.80;;;7.60;89.60;;;;;;4997732;28;20192;-79
2022/03/05 12:48:17;;;;;;;9.57;5.33;;;7.50;90.10;;;;;;4987047;28;20205;-74
2022/03/05 12:50:53;;;;;;;8.07;5.10;;;8.10;89.70;;;;;;4989955;28;20219;-78